• Join FlightAware (Why Join?)
  • Login
  • US Flag 
08:40PM EDT


 

Airport Tracker/Info


-or-


 

Live Flight TrackerFlight Track Log ✈ N147SW ✈ 23-Apr-2014 ✈ KPMP - KPIE

Flight Track Log - Related Links

Times and Time Zones

All times are in EDT time to prevent confusion due to time zone crossing. See the N147SW flight status page for this flight to view local times or setup timezone preferences in your user account.

Time Position Orientation Groundspeed Altitude Reporting Facility
EDT Latitude Longitude Course Direction KTS MPH feet Rate Location/Type
05:34PM 26.2406 -80.1064 80° East 128 147 700  Level Miami Center
05:35PM 26.2503 -80.0442 80° East 207 238 3,000 1,140 Climbing Miami Center
05:36PM 26.2581 -79.9725 83° East 254 292 3,100  Climbing Miami Center
05:37PM 26.2925 -79.9317 47° Northeast 204 235 3,100 600 Level Miami Center
05:38PM 26.2975 -79.9900 275° West 221 254 4,300 1,920 Climbing Miami Center
05:40PM 26.2769 -80.1583 305° West 461 531 9,000 1,560 Climbing Miami Center
05:41PM 26.3108 -80.2336 297° West 319 367 9,000 1,200 Level Miami Center
05:42PM 26.3592 -80.3161 303° West 293 337 11,500 2,760 Climbing Miami Center
05:43PM 26.4053 -80.3869 306° West 304 350 14,600 3,120 Climbing Miami Center
05:44PM 26.4575 -80.4744 304° West 316 364 17,800 2,700 Climbing Miami Center
05:45PM 26.5036 -80.5500 304° West 322 371 20,000 1,080 Climbing Miami Center
05:46PM 26.5697 -80.6614 304° West 370 426 20,000  Level Miami Center
05:47PM 26.6400 -80.7728 305° West 433 498 20,000  Level Miami Center
05:48PM 26.7097 -80.8867 304° West 445 512 20,000  Level Miami Center
05:49PM 26.7778 -81.0006 304° West 445 512 20,000  Level Miami Center
05:50PM 26.8394 -81.1031 304° West 445 512 20,000  Level Miami Center
05:51PM 26.9069 -81.2172 304° West 445 512 20,000  Level Miami Center
05:52PM 26.9825 -81.3433 304° West 445 512 20,000  Level Miami Center
05:53PM 27.0519 -81.4581 304° West 445 512 20,000 -420 Level Miami Center
05:54PM 27.1192 -81.5728 303° West 445 512 19,200 -1,560 Descending Miami Center
05:55PM 27.1906 -81.6922 304° West 450 518 16,900 -1,920 Descending Miami Center
05:56PM 27.2556 -81.8025 304° West 442 509 15,400 -1,500 Descending Miami Center
05:57PM 27.3208 -81.9103 304° West 431 496 13,900 -1,500 Descending Miami Center
05:58PM 27.3839 -82.0183 303° West 426 490 12,500 -1,440 Descending Miami Center
05:59PM 27.4447 -82.1217 304° West 414 476 11,100 -780 Descending Miami Center
06:00PM 27.5144 -82.2114 311° West 401 461 11,000 -240 Descending Miami Center
06:01PM 27.5733 -82.3078 305° West 381 438 10,700 -780 Descending Miami Center
06:02PM 27.6008 -82.4075 287° West 352 405 9,500 -1,740 Descending Miami Center
06:03PM 27.6228 -82.4928 286° West 317 365 7,300 -2,220 Descending Miami Center
06:04PM 27.6333 -82.5500 282° West 257 296 6,000 -2,460 Descending Tampa TRACON
06:05PM 27.6667 -82.6167 299° West 269 310 3,400 -2,220 Descending Tampa TRACON
06:06PM 27.7167 -82.6500 329° Northwest 259 298 2,100 -780 Descending Tampa TRACON
06:07PM 27.7833 -82.6667 348° North 233 268 2,000 -240 Descending Tampa TRACON
06:08PM 27.8333 -82.6833 344° North 167 192 1,700 -720 Descending Tampa TRACON
06:09PM 27.8667 -82.6833 360° North 145 167 700 -1,020 Descending Tampa TRACON